Dutton, Michigan
Current Conditions -  °F | °C
As of 3:46 AM on Friday 31 Oct 2014 (Local Time) from KGRR Reporting Station
Light Rain Light Rain  
Wind Chill: 41°   Ceiling: 3400
Heat Index: 45°   Visibility: 7mi
Dew Point: 41°   Wind: 8mph
Humidity: 86%   Direction: 270°W
Pressure: 29.93"   Gusts: NA
Location:  42.7912°N, 85.5517°W
Report Text: KGRR 310746Z AUTO 27007KT 7SM -RA SCT027 OVC034 07/05 A2993 RMK AO2 P0003 T00720050
Loading
Personal Weather Stations






























Interactive Weather Map
Tropical Storm Tracking
New forecast layout! Learn more

10-Day Weather Forecast

Advertisements
Track Severe Weather on mobile